Terminal Aerodrome Forecast
Issued by NWS

Home | Current Version | Previous Version | Text Only | Print | Product List | Glossary Off
Versions: 1 2 3 4 5 6 7 8 9 10 11 12 13 14 15 16 17 18 19

000
FTUS43 KMPX 191728
TAFRNH
TAF
KRNH 191728Z 1918/2018 14009KT P6SM SCT250
     FM200600 14009KT P6SM OVC200 WS020/20045KT
     FM201200 14009KT P6SM OVC012
     FM201600 15010KT 4SM SHRA BR VCTS OVC010CB=

USA.gov is the U.S. government's official web portal to all federal, state and local government web resources and services.